sensor_id;sensor_type;location;lat;lon;timestamp;temperature;humidity
33837;DHT22;20140;49.356;8.812;2022-07-29T00:02:20;19.50;99.90
33837;DHT22;20140;49.356;8.812;2022-07-29T00:04:46;19.40;99.90
33837;DHT22;20140;49.356;8.812;2022-07-29T00:07:11;19.40;99.90
33837;DHT22;20140;49.356;8.812;2022-07-29T00:09:37;19.40;99.90
33837;DHT22;20140;49.356;8.812;2022-07-29T00:12:02;19.40;99.90
33837;DHT22;20140;49.356;8.812;2022-07-29T00:14:28;19.40;99.90
33837;DHT22;20140;49.356;8.812;2022-07-29T00:16:53;19.40;99.90
33837;DHT22;20140;49.356;8.812;2022-07-29T00:19:19;19.50;99.90
33837;DHT22;20140;49.356;8.812;2022-07-29T00:21:44;19.60;99.90
33837;DHT22;20140;49.356;8.812;2022-07-29T00:24:10;19.50;99.90
33837;DHT22;20140;49.356;8.812;2022-07-29T00:26:35;19.50;99.90
33837;DHT22;20140;49.356;8.812;2022-07-29T00:29:01;19.50;99.90
33837;DHT22;20140;49.356;8.812;2022-07-29T00:31:27;19.50;99.90
33837;DHT22;20140;49.356;8.812;2022-07-29T00:33:52;19.50;99.90
33837;DHT22;20140;49.356;8.812;2022-07-29T00:36:18;19.40;99.90
33837;DHT22;20140;49.356;8.812;2022-07-29T00:38:43;19.30;99.90
33837;DHT22;20140;49.356;8.812;2022-07-29T00:41:10;19.20;99.90
33837;DHT22;20140;49.356;8.812;2022-07-29T00:43:36;19.20;99.90
33837;DHT22;20140;49.356;8.812;2022-07-29T00:46:01;19.20;99.90
33837;DHT22;20140;49.356;8.812;2022-07-29T00:48:27;19.30;99.90
33837;DHT22;20140;49.356;8.812;2022-07-29T00:50:52;19.30;99.90
33837;DHT22;20140;49.356;8.812;2022-07-29T00:53:19;19.30;99.90
33837;DHT22;20140;49.356;8.812;2022-07-29T00:55:45;19.20;99.90
33837;DHT22;20140;49.356;8.812;2022-07-29T00:58:11;19.20;99.90
33837;DHT22;20140;49.356;8.812;2022-07-29T01:00:37;19.10;99.90
33837;DHT22;20140;49.356;8.812;2022-07-29T01:03:02;19.10;99.90
33837;DHT22;20140;49.356;8.812;2022-07-29T01:05:28;19.10;99.90
33837;DHT22;20140;49.356;8.812;2022-07-29T01:07:54;19.00;99.90
33837;DHT22;20140;49.356;8.812;2022-07-29T01:10:20;19.00;99.90
33837;DHT22;20140;49.356;8.812;2022-07-29T01:12:47;18.90;99.90
33837;DHT22;20140;49.356;8.812;2022-07-29T01:15:14;18.90;99.90
33837;DHT22;20140;49.356;8.812;2022-07-29T01:20:30;18.80;99.90
33837;DHT22;20140;49.356;8.812;2022-07-29T01:30:28;18.80;99.90
33837;DHT22;20140;49.356;8.812;2022-07-29T01:33:02;18.80;99.90
33837;DHT22;20140;49.356;8.812;2022-07-29T01:35:28;18.70;99.90
33837;DHT22;20140;49.356;8.812;2022-07-29T01:40:35;18.80;99.90
33837;DHT22;20140;49.356;8.812;2022-07-29T01:43:06;18.80;99.90
33837;DHT22;20140;49.356;8.812;2022-07-29T01:45:38;18.70;99.90
33837;DHT22;20140;49.356;8.812;2022-07-29T01:48:13;18.70;99.90
33837;DHT22;20140;49.356;8.812;2022-07-29T01:50:45;18.70;99.90
33837;DHT22;20140;49.356;8.812;2022-07-29T01:53:11;18.60;99.90
33837;DHT22;20140;49.356;8.812;2022-07-29T01:55:40;18.50;99.90
33837;DHT22;20140;49.356;8.812;2022-07-29T01:58:06;18.40;99.90
33837;DHT22;20140;49.356;8.812;2022-07-29T02:00:33;18.30;99.90
33837;DHT22;20140;49.356;8.812;2022-07-29T02:03:00;18.30;99.90
33837;DHT22;20140;49.356;8.812;2022-07-29T02:05:27;18.40;99.90
33837;DHT22;20140;49.356;8.812;2022-07-29T02:07:53;18.40;99.90
33837;DHT22;20140;49.356;8.812;2022-07-29T02:10:21;18.30;99.90
33837;DHT22;20140;49.356;8.812;2022-07-29T02:12:47;18.20;99.90
33837;DHT22;20140;49.356;8.812;2022-07-29T02:15:13;18.10;99.90
33837;DHT22;20140;49.356;8.812;2022-07-29T02:17:41;18.10;99.90
33837;DHT22;20140;49.356;8.812;2022-07-29T02:20:09;18.00;99.90
33837;DHT22;20140;49.356;8.812;2022-07-29T02:22:35;18.00;99.90
33837;DHT22;20140;49.356;8.812;2022-07-29T02:25:02;18.00;99.90
33837;DHT22;20140;49.356;8.812;2022-07-29T02:27:28;18.00;99.90
33837;DHT22;20140;49.356;8.812;2022-07-29T02:29:53;17.90;99.90
33837;DHT22;20140;49.356;8.812;2022-07-29T02:32:19;17.90;99.90
33837;DHT22;20140;49.356;8.812;2022-07-29T02:34:46;17.90;99.90
33837;DHT22;20140;49.356;8.812;2022-07-29T02:37:12;17.90;99.90
33837;DHT22;20140;49.356;8.812;2022-07-29T02:39:38;17.80;99.90
33837;DHT22;20140;49.356;8.812;2022-07-29T02:42:07;17.80;99.90
33837;DHT22;20140;49.356;8.812;2022-07-29T02:44:33;17.70;99.90
33837;DHT22;20140;49.356;8.812;2022-07-29T02:49:32;17.70;99.90
33837;DHT22;20140;49.356;8.812;2022-07-29T02:52:12;17.60;99.90
33837;DHT22;20140;49.356;8.812;2022-07-29T02:54:42;17.60;99.90
33837;DHT22;20140;49.356;8.812;2022-07-29T02:57:20;17.60;99.90
33837;DHT22;20140;49.356;8.812;2022-07-29T02:59:47;17.50;99.90
33837;DHT22;20140;49.356;8.812;2022-07-29T03:02:14;17.40;99.90
33837;DHT22;20140;49.356;8.812;2022-07-29T03:04:39;17.40;99.90
33837;DHT22;20140;49.356;8.812;2022-07-29T03:07:06;17.30;99.90
33837;DHT22;20140;49.356;8.812;2022-07-29T03:09:32;17.30;99.90
33837;DHT22;20140;49.356;8.812;2022-07-29T03:11:57;17.30;99.90
33837;DHT22;20140;49.356;8.812;2022-07-29T03:14:23;17.30;99.90
33837;DHT22;20140;49.356;8.812;2022-07-29T03:16:49;17.30;99.90
33837;DHT22;20140;49.356;8.812;2022-07-29T03:19:16;17.20;99.90
33837;DHT22;20140;49.356;8.812;2022-07-29T03:21:41;17.20;99.90
33837;DHT22;20140;49.356;8.812;2022-07-29T03:24:07;17.20;99.90
33837;DHT22;20140;49.356;8.812;2022-07-29T03:26:32;17.20;99.90
33837;DHT22;20140;49.356;8.812;2022-07-29T03:28:58;17.30;99.90
33837;DHT22;20140;49.356;8.812;2022-07-29T03:31:23;17.30;99.90
33837;DHT22;20140;49.356;8.812;2022-07-29T03:33:48;17.20;99.90
33837;DHT22;20140;49.356;8.812;2022-07-29T03:36:14;17.20;99.90
33837;DHT22;20140;49.356;8.812;2022-07-29T03:38:39;17.20;99.90
33837;DHT22;20140;49.356;8.812;2022-07-29T03:41:09;17.20;99.90
33837;DHT22;20140;49.356;8.812;2022-07-29T03:43:35;17.30;99.90
33837;DHT22;20140;49.356;8.812;2022-07-29T03:46:01;17.20;99.90
33837;DHT22;20140;49.356;8.812;2022-07-29T03:48:28;17.10;99.90
33837;DHT22;20140;49.356;8.812;2022-07-29T03:50:55;17.10;99.90
33837;DHT22;20140;49.356;8.812;2022-07-29T03:53:21;17.10;99.90
33837;DHT22;20140;49.356;8.812;2022-07-29T03:55:47;17.10;99.90
33837;DHT22;20140;49.356;8.812;2022-07-29T03:58:14;17.10;99.90
33837;DHT22;20140;49.356;8.812;2022-07-29T04:00:40;17.10;99.90
33837;DHT22;20140;49.356;8.812;2022-07-29T04:03:05;17.10;99.90
33837;DHT22;20140;49.356;8.812;2022-07-29T04:05:31;17.10;99.90
33837;DHT22;20140;49.356;8.812;2022-07-29T04:07:56;17.10;99.90
33837;DHT22;20140;49.356;8.812;2022-07-29T04:10:22;17.10;99.90
33837;DHT22;20140;49.356;8.812;2022-07-29T04:12:50;17.10;99.90
33837;DHT22;20140;49.356;8.812;2022-07-29T04:15:16;17.10;99.90
33837;DHT22;20140;49.356;8.812;2022-07-29T04:17:41;17.10;99.90
33837;DHT22;20140;49.356;8.812;2022-07-29T04:20:07;17.10;99.90
33837;DHT22;20140;49.356;8.812;2022-07-29T04:22:32;17.00;99.90
33837;DHT22;20140;49.356;8.812;2022-07-29T04:24:58;17.10;99.90
33837;DHT22;20140;49.356;8.812;2022-07-29T04:27:23;17.10;99.90
33837;DHT22;20140;49.356;8.812;2022-07-29T04:29:49;17.00;99.90
33837;DHT22;20140;49.356;8.812;2022-07-29T04:32:14;17.00;99.90
33837;DHT22;20140;49.356;8.812;2022-07-29T04:34:40;17.00;99.90
33837;DHT22;20140;49.356;8.812;2022-07-29T04:37:05;17.00;99.90
33837;DHT22;20140;49.356;8.812;2022-07-29T04:39:31;17.00;99.90
33837;DHT22;20140;49.356;8.812;2022-07-29T04:41:56;16.90;99.90
33837;DHT22;20140;49.356;8.812;2022-07-29T04:44:22;16.90;99.90
33837;DHT22;20140;49.356;8.812;2022-07-29T04:46:47;16.90;99.90
33837;DHT22;20140;49.356;8.812;2022-07-29T04:49:12;16.90;99.90
33837;DHT22;20140;49.356;8.812;2022-07-29T04:51:38;16.90;99.90
33837;DHT22;20140;49.356;8.812;2022-07-29T04:54:03;17.00;99.90
33837;DHT22;20140;49.356;8.812;2022-07-29T04:56:29;16.90;99.90
33837;DHT22;20140;49.356;8.812;2022-07-29T04:58:54;16.90;99.90
33837;DHT22;20140;49.356;8.812;2022-07-29T05:01:20;16.90;99.90
33837;DHT22;20140;49.356;8.812;2022-07-29T05:03:45;16.70;99.90
33837;DHT22;20140;49.356;8.812;2022-07-29T05:06:13;16.70;99.90
33837;DHT22;20140;49.356;8.812;2022-07-29T05:08:39;16.60;99.90
33837;DHT22;20140;49.356;8.812;2022-07-29T05:11:04;16.70;99.90
33837;DHT22;20140;49.356;8.812;2022-07-29T05:13:30;16.70;99.90
33837;DHT22;20140;49.356;8.812;2022-07-29T05:15:55;17.00;99.90
33837;DHT22;20140;49.356;8.812;2022-07-29T05:18:23;17.20;99.90
33837;DHT22;20140;49.356;8.812;2022-07-29T05:20:49;17.30;99.90
33837;DHT22;20140;49.356;8.812;2022-07-29T05:23:14;17.50;99.90
33837;DHT22;20140;49.356;8.812;2022-07-29T05:25:40;17.60;99.90
33837;DHT22;20140;49.356;8.812;2022-07-29T05:28:05;17.70;99.90
33837;DHT22;20140;49.356;8.812;2022-07-29T05:30:31;17.80;99.90
33837;DHT22;20140;49.356;8.812;2022-07-29T05:32:56;17.90;99.90
33837;DHT22;20140;49.356;8.812;2022-07-29T05:35:22;17.90;99.90
33837;DHT22;20140;49.356;8.812;2022-07-29T05:37:47;18.00;99.90
33837;DHT22;20140;49.356;8.812;2022-07-29T05:40:13;17.90;99.90
33837;DHT22;20140;49.356;8.812;2022-07-29T05:42:38;18.00;99.90
33837;DHT22;20140;49.356;8.812;2022-07-29T05:45:04;18.10;99.90
33837;DHT22;20140;49.356;8.812;2022-07-29T05:47:30;18.20;99.90
33837;DHT22;20140;49.356;8.812;2022-07-29T05:49:55;18.30;99.90
33837;DHT22;20140;49.356;8.812;2022-07-29T05:52:21;18.40;99.90
33837;DHT22;20140;49.356;8.812;2022-07-29T05:54:47;18.40;99.90
33837;DHT22;20140;49.356;8.812;2022-07-29T05:57:16;18.50;99.90
33837;DHT22;20140;49.356;8.812;2022-07-29T05:59:41;18.60;99.90
33837;DHT22;20140;49.356;8.812;2022-07-29T06:02:07;18.60;99.90
33837;DHT22;20140;49.356;8.812;2022-07-29T06:04:32;18.70;99.90
33837;DHT22;20140;49.356;8.812;2022-07-29T06:06:58;18.70;99.90
33837;DHT22;20140;49.356;8.812;2022-07-29T06:09:24;18.60;99.90
33837;DHT22;20140;49.356;8.812;2022-07-29T06:11:49;18.60;99.90
33837;DHT22;20140;49.356;8.812;2022-07-29T06:14:15;18.70;99.90
33837;DHT22;20140;49.356;8.812;2022-07-29T06:16:40;18.70;99.90
33837;DHT22;20140;49.356;8.812;2022-07-29T06:19:06;18.90;99.90
33837;DHT22;20140;49.356;8.812;2022-07-29T06:21:31;19.10;99.90
33837;DHT22;20140;49.356;8.812;2022-07-29T06:23:57;19.30;99.90
33837;DHT22;20140;49.356;8.812;2022-07-29T06:26:22;19.40;99.90
33837;DHT22;20140;49.356;8.812;2022-07-29T06:28:48;19.50;99.90
33837;DHT22;20140;49.356;8.812;2022-07-29T06:31:13;19.60;99.90
33837;DHT22;20140;49.356;8.812;2022-07-29T06:33:39;19.80;99.90
33837;DHT22;20140;49.356;8.812;2022-07-29T06:36:04;19.90;99.90
33837;DHT22;20140;49.356;8.812;2022-07-29T06:38:31;20.10;99.90
33837;DHT22;20140;49.356;8.812;2022-07-29T06:40:56;20.10;99.90
33837;DHT22;20140;49.356;8.812;2022-07-29T06:43:32;20.20;99.90
33837;DHT22;20140;49.356;8.812;2022-07-29T06:45:59;20.40;99.90
33837;DHT22;20140;49.356;8.812;2022-07-29T06:48:25;20.60;99.90
33837;DHT22;20140;49.356;8.812;2022-07-29T06:50:50;20.70;99.90
33837;DHT22;20140;49.356;8.812;2022-07-29T06:53:15;20.70;99.90
33837;DHT22;20140;49.356;8.812;2022-07-29T06:55:41;20.60;99.90
33837;DHT22;20140;49.356;8.812;2022-07-29T06:58:07;20.60;99.90
33837;DHT22;20140;49.356;8.812;2022-07-29T07:00:32;20.60;99.90
33837;DHT22;20140;49.356;8.812;2022-07-29T07:02:58;20.80;99.90
33837;DHT22;20140;49.356;8.812;2022-07-29T07:05:23;20.90;99.90
33837;DHT22;20140;49.356;8.812;2022-07-29T07:07:49;21.00;99.90
33837;DHT22;20140;49.356;8.812;2022-07-29T07:10:14;21.00;99.90
33837;DHT22;20140;49.356;8.812;2022-07-29T07:12:40;21.00;99.90
33837;DHT22;20140;49.356;8.812;2022-07-29T07:15:05;21.10;99.90
33837;DHT22;20140;49.356;8.812;2022-07-29T07:17:31;21.30;99.90
33837;DHT22;20140;49.356;8.812;2022-07-29T07:19:56;21.40;99.90
33837;DHT22;20140;49.356;8.812;2022-07-29T07:22:22;21.40;99.90
33837;DHT22;20140;49.356;8.812;2022-07-29T07:24:47;21.40;99.90
33837;DHT22;20140;49.356;8.812;2022-07-29T07:27:12;21.60;99.90
33837;DHT22;20140;49.356;8.812;2022-07-29T07:29:38;21.80;99.90
33837;DHT22;20140;49.356;8.812;2022-07-29T07:32:06;21.80;99.90
33837;DHT22;20140;49.356;8.812;2022-07-29T07:34:32;21.80;99.90
33837;DHT22;20140;49.356;8.812;2022-07-29T07:36:57;21.70;99.90
33837;DHT22;20140;49.356;8.812;2022-07-29T07:39:23;21.80;99.90
33837;DHT22;20140;49.356;8.812;2022-07-29T07:41:48;21.90;99.90
33837;DHT22;20140;49.356;8.812;2022-07-29T07:44:13;22.10;99.90
33837;DHT22;20140;49.356;8.812;2022-07-29T07:46:39;22.00;99.90
33837;DHT22;20140;49.356;8.812;2022-07-29T07:49:04;21.90;99.90
33837;DHT22;20140;49.356;8.812;2022-07-29T07:51:30;22.00;99.90
33837;DHT22;20140;49.356;8.812;2022-07-29T07:53:55;22.20;99.90
33837;DHT22;20140;49.356;8.812;2022-07-29T07:56:21;22.30;99.90
33837;DHT22;20140;49.356;8.812;2022-07-29T07:58:46;22.60;99.90
33837;DHT22;20140;49.356;8.812;2022-07-29T08:01:11;22.70;99.90
33837;DHT22;20140;49.356;8.812;2022-07-29T08:03:37;23.00;99.90
33837;DHT22;20140;49.356;8.812;2022-07-29T08:06:03;23.00;99.90
33837;DHT22;20140;49.356;8.812;2022-07-29T08:08:28;22.90;99.90
33837;DHT22;20140;49.356;8.812;2022-07-29T08:10:54;22.80;99.90
33837;DHT22;20140;49.356;8.812;2022-07-29T08:13:25;22.80;99.90
33837;DHT22;20140;49.356;8.812;2022-07-29T08:15:55;22.70;99.90
33837;DHT22;20140;49.356;8.812;2022-07-29T08:18:25;22.90;99.90
33837;DHT22;20140;49.356;8.812;2022-07-29T08:20:51;22.90;99.90
33837;DHT22;20140;49.356;8.812;2022-07-29T08:23:16;23.10;99.90
33837;DHT22;20140;49.356;8.812;2022-07-29T08:25:44;23.50;99.90
33837;DHT22;20140;49.356;8.812;2022-07-29T08:28:09;23.50;99.90
33837;DHT22;20140;49.356;8.812;2022-07-29T08:30:35;23.50;99.90
33837;DHT22;20140;49.356;8.812;2022-07-29T08:33:00;23.70;99.90
33837;DHT22;20140;49.356;8.812;2022-07-29T08:35:26;23.60;99.90
33837;DHT22;20140;49.356;8.812;2022-07-29T08:37:52;23.60;99.90
33837;DHT22;20140;49.356;8.812;2022-07-29T08:40:17;23.90;99.90
33837;DHT22;20140;49.356;8.812;2022-07-29T08:42:43;23.90;99.90
33837;DHT22;20140;49.356;8.812;2022-07-29T08:45:09;24.20;99.90
33837;DHT22;20140;49.356;8.812;2022-07-29T08:47:34;24.20;99.90
33837;DHT22;20140;49.356;8.812;2022-07-29T08:50:03;23.70;99.90
33837;DHT22;20140;49.356;8.812;2022-07-29T08:52:29;23.40;99.90
33837;DHT22;20140;49.356;8.812;2022-07-29T08:54:57;23.20;99.90
33837;DHT22;20140;49.356;8.812;2022-07-29T08:57:24;23.30;99.90
33837;DHT22;20140;49.356;8.812;2022-07-29T08:59:49;23.50;99.90
33837;DHT22;20140;49.356;8.812;2022-07-29T09:02:19;23.70;99.90
33837;DHT22;20140;49.356;8.812;2022-07-29T09:04:45;23.90;99.90
33837;DHT22;20140;49.356;8.812;2022-07-29T09:07:10;23.90;99.90
33837;DHT22;20140;49.356;8.812;2022-07-29T09:09:39;23.80;99.90
33837;DHT22;20140;49.356;8.812;2022-07-29T09:12:05;23.90;99.90
33837;DHT22;20140;49.356;8.812;2022-07-29T09:14:32;24.10;99.90
33837;DHT22;20140;49.356;8.812;2022-07-29T09:16:58;24.40;99.90
33837;DHT22;20140;49.356;8.812;2022-07-29T09:19:25;24.40;99.90
33837;DHT22;20140;49.356;8.812;2022-07-29T09:21:51;24.50;99.90
33837;DHT22;20140;49.356;8.812;2022-07-29T09:24:22;24.50;99.90
33837;DHT22;20140;49.356;8.812;2022-07-29T09:26:48;24.30;99.90
33837;DHT22;20140;49.356;8.812;2022-07-29T09:29:17;24.50;99.90
33837;DHT22;20140;49.356;8.812;2022-07-29T09:31:43;24.70;99.90
33837;DHT22;20140;49.356;8.812;2022-07-29T09:34:10;24.80;99.90
33837;DHT22;20140;49.356;8.812;2022-07-29T09:39:07;24.60;99.90
33837;DHT22;20140;49.356;8.812;2022-07-29T09:41:49;24.50;99.90
33837;DHT22;20140;49.356;8.812;2022-07-29T09:44:15;24.60;99.90
33837;DHT22;20140;49.356;8.812;2022-07-29T09:47:02;24.80;99.90
33837;DHT22;20140;49.356;8.812;2022-07-29T09:49:33;25.00;99.90
33837;DHT22;20140;49.356;8.812;2022-07-29T09:52:06;25.10;99.90
33837;DHT22;20140;49.356;8.812;2022-07-29T09:54:32;25.10;99.90
33837;DHT22;20140;49.356;8.812;2022-07-29T09:57:05;25.10;99.90
33837;DHT22;20140;49.356;8.812;2022-07-29T09:59:31;25.20;99.90
33837;DHT22;20140;49.356;8.812;2022-07-29T10:01:57;25.40;99.90
33837;DHT22;20140;49.356;8.812;2022-07-29T10:04:22;25.40;99.90
33837;DHT22;20140;49.356;8.812;2022-07-29T10:07:01;25.60;99.90
33837;DHT22;20140;49.356;8.812;2022-07-29T10:09:27;25.80;99.90
33837;DHT22;20140;49.356;8.812;2022-07-29T10:12:02;26.00;99.90
33837;DHT22;20140;49.356;8.812;2022-07-29T10:14:27;25.90;99.90
33837;DHT22;20140;49.356;8.812;2022-07-29T10:16:53;26.10;99.90
33837;DHT22;20140;49.356;8.812;2022-07-29T10:19:19;26.10;99.90
33837;DHT22;20140;49.356;8.812;2022-07-29T10:21:44;26.40;99.90
33837;DHT22;20140;49.356;8.812;2022-07-29T10:24:10;26.40;99.90
33837;DHT22;20140;49.356;8.812;2022-07-29T10:26:35;26.30;99.90
33837;DHT22;20140;49.356;8.812;2022-07-29T10:29:02;26.20;99.90
33837;DHT22;20140;49.356;8.812;2022-07-29T10:31:35;26.50;99.90
33837;DHT22;20140;49.356;8.812;2022-07-29T10:34:06;26.50;99.90
33837;DHT22;20140;49.356;8.812;2022-07-29T10:41:55;27.10;99.90
33837;DHT22;20140;49.356;8.812;2022-07-29T10:44:23;27.10;99.90
33837;DHT22;20140;49.356;8.812;2022-07-29T10:46:50;27.10;99.90
33837;DHT22;20140;49.356;8.812;2022-07-29T10:49:16;27.10;99.90
33837;DHT22;20140;49.356;8.812;2022-07-29T10:57:16;27.20;99.90
33837;DHT22;20140;49.356;8.812;2022-07-29T10:59:43;27.30;99.90
33837;DHT22;20140;49.356;8.812;2022-07-29T11:02:40;27.30;99.90
33837;DHT22;20140;49.356;8.812;2022-07-29T11:07:19;26.80;99.90
33837;DHT22;20140;49.356;8.812;2022-07-29T11:09:50;26.90;99.90
33837;DHT22;20140;49.356;8.812;2022-07-29T11:15:02;26.70;99.90
33837;DHT22;20140;49.356;8.812;2022-07-29T11:17:28;26.70;99.90
33837;DHT22;20140;49.356;8.812;2022-07-29T11:22:38;27.10;99.90
33837;DHT22;20140;49.356;8.812;2022-07-29T11:25:13;27.40;99.80
33837;DHT22;20140;49.356;8.812;2022-07-29T11:27:39;27.50;98.60
33837;DHT22;20140;49.356;8.812;2022-07-29T11:30:05;27.70;97.70
33837;DHT22;20140;49.356;8.812;2022-07-29T11:32:37;27.60;97.70
33837;DHT22;20140;49.356;8.812;2022-07-29T11:35:24;27.20;98.20
33837;DHT22;20140;49.356;8.812;2022-07-29T11:40:33;27.80;98.50
33837;DHT22;20140;49.356;8.812;2022-07-29T11:42:58;28.20;97.50
33837;DHT22;20140;49.356;8.812;2022-07-29T11:45:25;27.90;96.80
33837;DHT22;20140;49.356;8.812;2022-07-29T11:47:55;27.90;96.10
33837;DHT22;20140;49.356;8.812;2022-07-29T11:50:27;27.70;95.90
33837;DHT22;20140;49.356;8.812;2022-07-29T11:52:53;27.80;95.80
33837;DHT22;20140;49.356;8.812;2022-07-29T11:55:20;28.00;95.70
33837;DHT22;20140;49.356;8.812;2022-07-29T11:57:46;28.00;95.30
33837;DHT22;20140;49.356;8.812;2022-07-29T12:00:16;27.80;95.60
33837;DHT22;20140;49.356;8.812;2022-07-29T12:02:45;28.10;95.30
33837;DHT22;20140;49.356;8.812;2022-07-29T12:05:11;28.20;95.10
33837;DHT22;20140;49.356;8.812;2022-07-29T12:07:37;27.90;94.90
33837;DHT22;20140;49.356;8.812;2022-07-29T12:10:04;28.10;94.50
33837;DHT22;20140;49.356;8.812;2022-07-29T12:12:30;28.30;94.20
33837;DHT22;20140;49.356;8.812;2022-07-29T12:14:55;28.30;94.10
33837;DHT22;20140;49.356;8.812;2022-07-29T12:17:27;28.30;93.80
33837;DHT22;20140;49.356;8.812;2022-07-29T12:19:55;28.40;93.60
33837;DHT22;20140;49.356;8.812;2022-07-29T12:22:24;28.60;93.50
33837;DHT22;20140;49.356;8.812;2022-07-29T12:24:50;28.90;92.40
33837;DHT22;20140;49.356;8.812;2022-07-29T12:27:16;29.00;91.50
33837;DHT22;20140;49.356;8.812;2022-07-29T12:29:42;28.60;92.20
33837;DHT22;20140;49.356;8.812;2022-07-29T12:32:07;28.80;92.80
33837;DHT22;20140;49.356;8.812;2022-07-29T12:34:34;28.80;92.10
33837;DHT22;20140;49.356;8.812;2022-07-29T12:36:59;28.90;91.10
33837;DHT22;20140;49.356;8.812;2022-07-29T12:39:26;29.30;91.40
33837;DHT22;20140;49.356;8.812;2022-07-29T12:41:53;29.10;90.90
33837;DHT22;20140;49.356;8.812;2022-07-29T12:44:18;29.00;90.60
33837;DHT22;20140;49.356;8.812;2022-07-29T12:46:44;28.90;91.10
33837;DHT22;20140;49.356;8.812;2022-07-29T12:49:20;28.90;91.20
33837;DHT22;20140;49.356;8.812;2022-07-29T12:51:46;28.80;91.70
33837;DHT22;20140;49.356;8.812;2022-07-29T12:54:12;28.40;91.80
33837;DHT22;20140;49.356;8.812;2022-07-29T12:56:39;28.60;90.90
33837;DHT22;20140;49.356;8.812;2022-07-29T12:59:15;28.70;91.00
33837;DHT22;20140;49.356;8.812;2022-07-29T13:01:41;28.50;91.10
33837;DHT22;20140;49.356;8.812;2022-07-29T13:04:06;28.40;91.20
33837;DHT22;20140;49.356;8.812;2022-07-29T13:06:44;28.80;90.70
33837;DHT22;20140;49.356;8.812;2022-07-29T13:11:37;28.50;90.50
33837;DHT22;20140;49.356;8.812;2022-07-29T13:14:05;28.30;90.20
33837;DHT22;20140;49.356;8.812;2022-07-29T13:16:31;28.00;90.60
33837;DHT22;20140;49.356;8.812;2022-07-29T13:19:04;27.90;90.50
33837;DHT22;20140;49.356;8.812;2022-07-29T13:21:29;27.90;91.10
33837;DHT22;20140;49.356;8.812;2022-07-29T13:23:55;28.10;90.80
33837;DHT22;20140;49.356;8.812;2022-07-29T13:26:20;27.90;90.40
33837;DHT22;20140;49.356;8.812;2022-07-29T13:28:46;27.70;90.30
33837;DHT22;20140;49.356;8.812;2022-07-29T13:31:11;27.90;90.60
33837;DHT22;20140;49.356;8.812;2022-07-29T13:33:37;27.90;90.60
33837;DHT22;20140;49.356;8.812;2022-07-29T13:36:02;27.90;90.80
33837;DHT22;20140;49.356;8.812;2022-07-29T13:38:28;27.70;91.00
33837;DHT22;20140;49.356;8.812;2022-07-29T13:40:53;27.50;92.10
33837;DHT22;20140;49.356;8.812;2022-07-29T13:43:18;27.40;93.60
33837;DHT22;20140;49.356;8.812;2022-07-29T13:45:44;27.40;93.10
33837;DHT22;20140;49.356;8.812;2022-07-29T13:48:09;27.60;93.60
33837;DHT22;20140;49.356;8.812;2022-07-29T13:50:36;27.60;92.00
33837;DHT22;20140;49.356;8.812;2022-07-29T13:53:01;27.50;91.90
33837;DHT22;20140;49.356;8.812;2022-07-29T13:55:27;27.40;92.20
33837;DHT22;20140;49.356;8.812;2022-07-29T13:57:53;27.40;91.70
33837;DHT22;20140;49.356;8.812;2022-07-29T14:00:18;27.40;91.10
33837;DHT22;20140;49.356;8.812;2022-07-29T14:02:44;27.50;91.10
33837;DHT22;20140;49.356;8.812;2022-07-29T14:05:09;27.60;90.80
33837;DHT22;20140;49.356;8.812;2022-07-29T14:07:36;27.70;91.10
33837;DHT22;20140;49.356;8.812;2022-07-29T14:10:02;27.80;90.60
33837;DHT22;20140;49.356;8.812;2022-07-29T14:12:27;27.60;90.80
33837;DHT22;20140;49.356;8.812;2022-07-29T14:14:53;27.60;90.60
33837;DHT22;20140;49.356;8.812;2022-07-29T14:17:18;27.80;91.00
33837;DHT22;20140;49.356;8.812;2022-07-29T14:19:44;28.00;91.30
33837;DHT22;20140;49.356;8.812;2022-07-29T14:22:09;28.10;90.50
33837;DHT22;20140;49.356;8.812;2022-07-29T14:24:35;28.00;89.40
33837;DHT22;20140;49.356;8.812;2022-07-29T14:27:01;27.90;89.80
33837;DHT22;20140;49.356;8.812;2022-07-29T14:29:27;28.00;90.00
33837;DHT22;20140;49.356;8.812;2022-07-29T14:31:52;28.00;88.60
33837;DHT22;20140;49.356;8.812;2022-07-29T14:34:18;28.10;90.00
33837;DHT22;20140;49.356;8.812;2022-07-29T14:36:43;28.20;87.70
33837;DHT22;20140;49.356;8.812;2022-07-29T14:39:09;28.30;87.90
33837;DHT22;20140;49.356;8.812;2022-07-29T14:41:34;28.10;88.30
33837;DHT22;20140;49.356;8.812;2022-07-29T14:44:00;28.00;88.30
33837;DHT22;20140;49.356;8.812;2022-07-29T14:46:28;28.30;87.90
33837;DHT22;20140;49.356;8.812;2022-07-29T14:48:53;28.40;87.70
33837;DHT22;20140;49.356;8.812;2022-07-29T14:51:19;28.40;87.90
33837;DHT22;20140;49.356;8.812;2022-07-29T14:53:44;28.40;85.30
33837;DHT22;20140;49.356;8.812;2022-07-29T14:56:10;28.40;84.20
33837;DHT22;20140;49.356;8.812;2022-07-29T14:58:35;28.40;84.90
33837;DHT22;20140;49.356;8.812;2022-07-29T15:01:01;28.50;82.80
33837;DHT22;20140;49.356;8.812;2022-07-29T15:03:26;28.50;84.60
33837;DHT22;20140;49.356;8.812;2022-07-29T15:05:53;28.40;84.20
33837;DHT22;20140;49.356;8.812;2022-07-29T15:08:18;28.50;83.20
33837;DHT22;20140;49.356;8.812;2022-07-29T15:10:44;28.20;85.50
33837;DHT22;20140;49.356;8.812;2022-07-29T15:13:09;28.20;84.10
33837;DHT22;20140;49.356;8.812;2022-07-29T15:15:35;28.30;83.80
33837;DHT22;20140;49.356;8.812;2022-07-29T15:18:00;28.40;83.70
33837;DHT22;20140;49.356;8.812;2022-07-29T15:20:26;28.10;84.10
33837;DHT22;20140;49.356;8.812;2022-07-29T15:22:52;28.20;84.40
33837;DHT22;20140;49.356;8.812;2022-07-29T15:25:18;28.60;81.70
33837;DHT22;20140;49.356;8.812;2022-07-29T15:27:43;28.80;81.10
33837;DHT22;20140;49.356;8.812;2022-07-29T15:30:09;29.00;80.90
33837;DHT22;20140;49.356;8.812;2022-07-29T15:32:35;28.80;82.70
33837;DHT22;20140;49.356;8.812;2022-07-29T15:35:00;29.10;81.50
33837;DHT22;20140;49.356;8.812;2022-07-29T15:37:26;29.40;79.90
33837;DHT22;20140;49.356;8.812;2022-07-29T15:39:53;29.30;79.70
33837;DHT22;20140;49.356;8.812;2022-07-29T15:42:19;28.80;79.30
33837;DHT22;20140;49.356;8.812;2022-07-29T15:44:44;28.50;80.70
33837;DHT22;20140;49.356;8.812;2022-07-29T15:47:10;28.40;79.80
33837;DHT22;20140;49.356;8.812;2022-07-29T15:49:36;28.30;78.90
33837;DHT22;20140;49.356;8.812;2022-07-29T15:52:03;28.20;79.50
33837;DHT22;20140;49.356;8.812;2022-07-29T15:54:31;28.30;79.60
33837;DHT22;20140;49.356;8.812;2022-07-29T15:56:57;28.30;79.20
33837;DHT22;20140;49.356;8.812;2022-07-29T15:59:23;28.20;79.30
33837;DHT22;20140;49.356;8.812;2022-07-29T16:01:49;28.20;79.50
33837;DHT22;20140;49.356;8.812;2022-07-29T16:04:15;28.40;76.80
33837;DHT22;20140;49.356;8.812;2022-07-29T16:06:41;28.70;76.20
33837;DHT22;20140;49.356;8.812;2022-07-29T16:09:07;29.10;75.20